Pagrindinis puslapis
METAR-TAF:

METAR-TAF

Oro uostai :

Ponta Porã, Pietų Mato Grosas, Brazilija

platuma: 22-33S, ilguma: 055-42W, Aukštis: 657 m

Dabartinis oras

Ataskaita buvo paskelbta 42 minutes, ne 22:00 UTC
Ramus vėjas
Temperatūra 32°C
Drėgmė 24%
Slėgis 1013 hPa
Matomumas 10 km arba daugiau
nėra debesų žemiau 1500 m ir nėra kamuolinių lietaus debesų

METAR: SBPP 162200Z 00000KT CAVOK 32/09 Q1013

Laikas: 18:42 (22:42 UTC)

Prognozė

Ataskaita buvo paskelbta 6 valandos ir 42 minutes, ne 16:00 UTC
Prognozė galioja nuo 16 metu 18 UTC su 17 metu 18 UTC
Vėjas 10 kt iš Vakarų/Šiaurės Vakarų
Matomumas 10 km arba daugiau
nėra debesų žemiau 1500 m ir nėra kamuolinių lietaus debesų
Tikimybė 30%
nuo 17 metu 10 UTC su 17 metu 14 UTC
Matomumas: 4500 m
rūkana

TAF: SBPP 161600Z 1618/1718 30010KT CAVOK TX38/1618Z TN27/1712Z PROB30 1710/1714 4500 BR RMK PDU

Orai ataskaitas ir orų prognozės (METAR, TAF).

turimą stotys yra geltonos ir raudonos taškus žemėlapyje.

Perkelti pele per norėdami pamatyti stoties vardą.

Tada spustelėkite, norėdami matyti oro stebėjimo ir prognozės.

Norėdami pakeisti žemėlapį: spustelėkite ant žalios mygtukų su juodo kryžiaus žemyn,; žalią mygtuką su brūkšneliu, jei norite nutolinti; arba žalių rodyklių gretimoms žemėlapius.


METAR-TAF: